Time;durP1;ratioP1;P1;durP2;ratioP2;P2;SDS_P1;SDS_P2;PMS_P1;PMS_P2;Temp;Humidity;BMP_temperature;BMP_pressure;BME280_temperature;BME280_humidity;BME280_pressure;Samples;Min_cycle;Max_cycle;Signal;HPM_P1;HPM_P2
2022/09/11 00:00:05;;;;;;;1.70;1.10;;;;;;;;;;4992959;28;20062;-74
2022/09/11 00:02:50;;;;;;;1.55;1.13;;;;;;;;;;4991932;28;20032;-78
2022/09/11 00:05:38;;;;;;;4.00;1.20;;;;;;;;;;4985389;28;20485;-86
2022/09/11 00:08:23;;;;;;;3.90;1.20;;;;;;;;;;4987792;28;20028;-87
2022/09/11 00:11:16;;;;;;;3.00;1.10;;;;;;;;;;4981809;28;20031;-87
2022/09/11 00:14:01;;;;;;;4.32;1.13;;;;;;;;;;4990761;28;20516;-90
2022/09/11 00:16:47;;;;;;;2.22;1.02;;;;;;;;;;4991806;28;20033;-86
2022/09/11 00:19:34;;;;;;;1.70;0.85;;;;;;;;;;4980574;28;20026;-86
2022/09/11 00:22:19;;;;;;;2.83;1.13;;;;;;;;;;4988022;28;20026;-79
2022/09/11 00:25:05;;;;;;;1.52;1.02;;;;;;;;;;4993956;28;20378;-86
2022/09/11 00:27:51;;;;;;;2.95;1.13;;;;;;;;;;4987472;28;20014;-85
2022/09/11 00:30:36;;;;;;;4.65;1.02;;;;;;;;;;4975823;28;20069;-86
2022/09/11 00:33:22;;;;;;;1.92;0.80;;;;;;;;;;4990435;28;20409;-86
2022/09/11 00:36:11;;;;;;;1.58;1.00;;;;;;;;;;4993527;28;20038;-86
2022/09/11 00:38:57;;;;;;;3.23;1.90;;;;;;;;;;4987457;28;20548;-74
2022/09/11 00:41:45;;;;;;;4.00;1.23;;;;;;;;;;4960384;28;20046;-74
2022/09/11 00:44:30;;;;;;;3.35;1.10;;;;;;;;;;4973237;28;20030;-83
2022/09/11 00:47:17;;;;;;;2.42;1.00;;;;;;;;;;4999426;28;20034;-81
2022/09/11 00:50:08;;;;;;;3.67;1.15;;;;;;;;;;5003247;28;20030;-82
2022/09/11 00:52:55;;;;;;;1.23;0.90;;;;;;;;;;4993031;28;20023;-82
2022/09/11 00:55:43;;;;;;;1.30;1.10;;;;;;;;;;4982998;28;20022;-84
2022/09/11 00:58:31;;;;;;;5.82;1.00;;;;;;;;;;4995316;28;20080;-71
2022/09/11 01:01:16;;;;;;;4.18;1.27;;;;;;;;;;4980919;28;20037;-87
2022/09/11 01:04:03;;;;;;;3.03;1.02;;;;;;;;;;4975928;28;20023;-87
2022/09/11 01:06:51;;;;;;;2.20;1.33;;;;;;;;;;4975652;28;20061;-84
2022/09/11 01:09:37;;;;;;;2.17;1.05;;;;;;;;;;4977007;28;20041;-88
2022/09/11 01:12:31;;;;;;;1.77;1.10;;;;;;;;;;4989670;28;20145;-84
2022/09/11 01:15:31;;;;;;;1.17;0.90;;;;;;;;;;4988000;28;20034;-85
2022/09/11 01:18:21;;;;;;;2.53;1.35;;;;;;;;;;4985518;28;20034;-71
2022/09/11 01:21:07;;;;;;;2.22;1.25;;;;;;;;;;4983499;28;20029;-86
2022/09/11 01:24:08;;;;;;;3.70;1.30;;;;;;;;;;4983376;28;20031;-87
2022/09/11 01:27:09;;;;;;;2.65;1.35;;;;;;;;;;4978751;28;20018;-88
2022/09/11 01:30:00;;;;;;;4.82;1.27;;;;;;;;;;4992764;28;20406;-86
2022/09/11 01:32:46;;;;;;;5.00;1.38;;;;;;;;;;4970808;28;20026;-85
2022/09/11 01:35:38;;;;;;;1.95;1.17;;;;;;;;;;4985505;28;20039;-89
2022/09/11 01:38:27;;;;;;;4.20;1.33;;;;;;;;;;4967128;28;20018;-75
2022/09/11 01:41:16;;;;;;;1.25;1.00;;;;;;;;;;4990329;28;20026;-74
2022/09/11 01:44:12;;;;;;;3.42;1.25;;;;;;;;;;4986272;28;20077;-74
2022/09/11 01:46:58;;;;;;;1.83;1.00;;;;;;;;;;4984420;28;20089;-75
2022/09/11 01:49:49;;;;;;;2.97;1.30;;;;;;;;;;4981761;28;20046;-76
2022/09/11 01:52:39;;;;;;;3.17;1.35;;;;;;;;;;4984168;28;20153;-72
2022/09/11 01:55:36;;;;;;;5.18;1.40;;;;;;;;;;4984771;28;20561;-88
2022/09/11 01:58:24;;;;;;;2.00;1.10;;;;;;;;;;4972277;28;20080;-80
2022/09/11 02:01:14;;;;;;;2.65;1.35;;;;;;;;;;4984957;28;20061;-79
2022/09/11 02:04:06;;;;;;;2.38;1.10;;;;;;;;;;4982154;28;20026;-79
2022/09/11 02:06:55;;;;;;;2.35;1.25;;;;;;;;;;4983972;28;20057;-80
2022/09/11 02:09:43;;;;;;;2.73;1.10;;;;;;;;;;4973182;28;20034;-79
2022/09/11 02:12:35;;;;;;;2.33;1.10;;;;;;;;;;4984835;28;20025;-75
2022/09/11 02:15:22;;;;;;;3.90;1.30;;;;;;;;;;4967495;28;20118;-79
2022/09/11 02:18:16;;;;;;;2.40;1.38;;;;;;;;;;4976113;28;20552;-78
2022/09/11 02:21:02;;;;;;;3.70;1.63;;;;;;;;;;4982160;28;20485;-78
2022/09/11 02:23:48;;;;;;;5.47;1.42;;;;;;;;;;4983931;28;20112;-78
2022/09/11 02:26:38;;;;;;;3.13;1.65;;;;;;;;;;4987170;28;20383;-79
2022/09/11 02:29:25;;;;;;;3.45;1.63;;;;;;;;;;4968392;28;20250;-78
2022/09/11 02:32:11;;;;;;;6.15;0.93;;;;;;;;;;4980300;28;20026;-73
2022/09/11 02:34:57;;;;;;;2.05;1.20;;;;;;;;;;4981386;28;20410;-71
2022/09/11 02:37:44;;;;;;;2.42;1.10;;;;;;;;;;4983197;28;20393;-71
2022/09/11 02:40:50;;;;;;;1.98;1.17;;;;;;;;;;4983665;28;20030;-71
2022/09/11 02:43:48;;;;;;;2.33;1.27;;;;;;;;;;4975921;28;20025;-71
2022/09/11 02:46:47;;;;;;;1.83;1.10;;;;;;;;;;4976871;28;20022;-71
2022/09/11 02:49:41;;;;;;;5.03;1.88;;;;;;;;;;4970742;28;20035;-75
2022/09/11 02:52:48;;;;;;;2.67;1.00;;;;;;;;;;4975077;28;20030;-72
2022/09/11 02:55:52;;;;;;;2.70;1.10;;;;;;;;;;4978377;28;20018;-71
2022/09/11 02:58:41;;;;;;;3.72;1.27;;;;;;;;;;4983357;28;20434;-71
2022/09/11 03:01:26;;;;;;;1.50;1.38;;;;;;;;;;4986527;28;20030;-71
2022/09/11 03:04:14;;;;;;;5.13;1.30;;;;;;;;;;4980834;28;20022;-72
2022/09/11 03:07:00;;;;;;;2.38;2.03;;;;;;;;;;4987252;28;20050;-81
2022/09/11 03:09:46;;;;;;;2.05;1.38;;;;;;;;;;4981739;28;20045;-73
2022/09/11 03:12:33;;;;;;;3.65;1.88;;;;;;;;;;4977302;28;20031;-73
2022/09/11 03:15:19;;;;;;;4.57;1.95;;;;;;;;;;4993016;28;20031;-73
2022/09/11 03:18:05;;;;;;;3.03;1.38;;;;;;;;;;4975133;28;20664;-73
2022/09/11 03:20:50;;;;;;;3.72;1.38;;;;;;;;;;4970580;28;20026;-73
2022/09/11 03:23:36;;;;;;;3.15;1.60;;;;;;;;;;4976770;28;20464;-73
2022/09/11 03:26:23;;;;;;;3.60;1.73;;;;;;;;;;4986442;28;20057;-79
2022/09/11 03:29:08;;;;;;;1.58;1.20;;;;;;;;;;4983295;28;20042;-80
2022/09/11 03:31:57;;;;;;;3.88;1.60;;;;;;;;;;4988343;28;20394;-79
2022/09/11 03:34:43;;;;;;;1.83;1.33;;;;;;;;;;4976303;28;20031;-79
2022/09/11 03:37:28;;;;;;;3.58;1.80;;;;;;;;;;4992548;28;20066;-80
2022/09/11 03:40:14;;;;;;;3.20;1.50;;;;;;;;;;4988930;28;20027;-79
2022/09/11 03:42:59;;;;;;;3.40;1.58;;;;;;;;;;4986628;28;20019;-83
2022/09/11 03:45:48;;;;;;;1.73;1.40;;;;;;;;;;4982310;28;20366;-72
2022/09/11 03:48:34;;;;;;;4.97;2.22;;;;;;;;;;4983246;28;20029;-80
2022/09/11 03:51:20;;;;;;;2.67;1.63;;;;;;;;;;4984464;28;20035;-80
2022/09/11 03:54:06;;;;;;;4.22;2.40;;;;;;;;;;4972243;28;20114;-78
2022/09/11 03:56:51;;;;;;;2.08;1.30;;;;;;;;;;4990049;28;20029;-79
2022/09/11 03:59:38;;;;;;;3.72;1.67;;;;;;;;;;4978553;28;20035;-80
2022/09/11 04:02:23;;;;;;;3.63;1.88;;;;;;;;;;4986344;28;20040;-87
2022/09/11 04:05:10;;;;;;;4.28;2.08;;;;;;;;;;4983085;28;20034;-71
2022/09/11 04:07:56;;;;;;;3.33;1.52;;;;;;;;;;4980799;28;20023;-72
2022/09/11 04:10:41;;;;;;;4.28;1.85;;;;;;;;;;4982419;28;20401;-73
2022/09/11 04:13:31;;;;;;;3.17;1.88;;;;;;;;;;4986031;28;20078;-72
2022/09/11 04:16:17;;;;;;;;;;;;;;;;;;4985325;28;20041;-75
2022/09/11 04:19:03;;;;;;;4.57;2.00;;;;;;;;;;4938368;28;1102654;-72
2022/09/11 04:21:48;;;;;;;3.88;1.85;;;;;;;;;;4988590;28;20033;-73
2022/09/11 04:24:34;;;;;;;3.40;1.90;;;;;;;;;;4979742;28;20027;-72
2022/09/11 04:27:22;;;;;;;5.28;2.65;;;;;;;;;;4984810;28;20503;-72
2022/09/11 04:30:08;;;;;;;3.88;2.20;;;;;;;;;;4980057;28;20026;-74
2022/09/11 04:32:53;;;;;;;3.13;2.08;;;;;;;;;;4988260;28;20037;-72
2022/09/11 04:35:40;;;;;;;4.18;2.08;;;;;;;;;;4986988;28;20061;-72
2022/09/11 04:38:25;;;;;;;3.58;2.00;;;;;;;;;;4993157;28;20037;-80
2022/09/11 04:41:11;;;;;;;5.30;2.20;;;;;;;;;;4991924;28;20085;-79
2022/09/11 04:43:57;;;;;;;3.40;2.20;;;;;;;;;;4985149;28;20428;-79
2022/09/11 04:46:44;;;;;;;3.42;1.90;;;;;;;;;;4983868;28;20023;-80
2022/09/11 04:49:29;;;;;;;4.03;2.35;;;;;;;;;;4976934;28;20036;-78
2022/09/11 04:52:15;;;;;;;3.10;2.15;;;;;;;;;;4971142;28;20486;-78
2022/09/11 04:55:00;;;;;;;4.20;1.90;;;;;;;;;;4972885;28;20029;-78
2022/09/11 04:57:46;;;;;;;2.47;1.92;;;;;;;;;;4984744;28;20026;-82
2022/09/11 05:00:32;;;;;;;3.45;2.63;;;;;;;;;;4987601;28;20034;-89
2022/09/11 05:03:19;;;;;;;3.20;2.22;;;;;;;;;;4983754;28;20030;-89
2022/09/11 05:06:06;;;;;;;3.20;2.60;;;;;;;;;;4992551;28;20104;-90
2022/09/11 05:08:52;;;;;;;2.80;2.30;;;;;;;;;;4989312;28;20023;-89
2022/09/11 05:11:38;;;;;;;5.65;2.80;;;;;;;;;;4992787;28;20493;-90
2022/09/11 05:14:24;;;;;;;2.75;2.13;;;;;;;;;;4994723;28;20478;-89
2022/09/11 05:17:12;;;;;;;3.13;2.22;;;;;;;;;;4989823;28;20506;-72
2022/09/11 05:19:57;;;;;;;4.10;2.38;;;;;;;;;;4984270;28;20045;-73
2022/09/11 05:22:43;;;;;;;2.97;1.98;;;;;;;;;;4976366;28;20034;-73
2022/09/11 05:25:30;;;;;;;5.00;2.40;;;;;;;;;;4989513;28;20468;-73
2022/09/11 05:28:16;;;;;;;3.15;2.10;;;;;;;;;;4977636;28;20485;-72
2022/09/11 05:31:09;;;;;;;5.15;2.60;;;;;;;;;;4987416;28;20126;-73
2022/09/11 05:33:55;;;;;;;3.63;2.33;;;;;;;;;;4990806;28;20035;-71
2022/09/11 05:36:41;;;;;;;3.55;2.70;;;;;;;;;;4983703;28;20045;-73
2022/09/11 05:39:26;;;;;;;4.78;2.47;;;;;;;;;;4973687;28;20787;-72
2022/09/11 05:42:13;;;;;;;5.93;2.50;;;;;;;;;;4983089;28;20475;-73
2022/09/11 05:44:59;;;;;;;4.80;2.70;;;;;;;;;;4981022;28;20019;-72
2022/09/11 05:47:45;;;;;;;5.47;2.60;;;;;;;;;;4987854;28;20553;-72
2022/09/11 05:50:32;;;;;;;4.60;2.55;;;;;;;;;;4984831;28;20030;-73
2022/09/11 05:53:17;;;;;;;6.15;2.53;;;;;;;;;;4983105;28;20026;-80
2022/09/11 05:56:07;;;;;;;4.63;2.63;;;;;;;;;;4989212;28;20457;-87
2022/09/11 05:58:53;;;;;;;5.40;2.60;;;;;;;;;;4990538;28;20018;-85
2022/09/11 06:01:39;;;;;;;6.30;2.80;;;;;;;;;;4988257;28;20113;-87
2022/09/11 06:04:24;;;;;;;6.60;2.58;;;;;;;;;;4984187;28;20497;-88
2022/09/11 06:07:10;;;;;;;6.40;2.72;;;;;;;;;;4989335;28;20113;-88
2022/09/11 06:09:56;;;;;;;5.38;2.90;;;;;;;;;;4991334;28;20030;-88
2022/09/11 06:12:41;;;;;;;4.00;2.60;;;;;;;;;;4991014;28;20030;-71
2022/09/11 06:15:27;;;;;;;4.05;2.80;;;;;;;;;;4985053;28;20436;-80
2022/09/11 06:18:13;;;;;;;3.70;2.60;;;;;;;;;;4986351;28;20073;-81
2022/09/11 06:21:05;;;;;;;6.43;3.05;;;;;;;;;;4990194;28;20096;-81
2022/09/11 06:23:52;;;;;;;4.85;2.70;;;;;;;;;;4986708;28;20053;-83
2022/09/11 06:26:37;;;;;;;6.25;2.83;;;;;;;;;;4978848;28;20477;-80
2022/09/11 06:29:23;;;;;;;6.25;3.58;;;;;;;;;;4973706;28;20038;-75
2022/09/11 06:32:09;;;;;;;5.32;3.42;;;;;;;;;;4988385;28;20054;-79
2022/09/11 06:34:54;;;;;;;5.25;2.88;;;;;;;;;;4973770;28;20117;-79
2022/09/11 06:37:40;;;;;;;9.52;3.92;;;;;;;;;;4975386;28;20073;-79
2022/09/11 06:40:25;;;;;;;5.10;3.15;;;;;;;;;;4973854;28;20505;-80
2022/09/11 06:43:12;;;;;;;4.90;3.58;;;;;;;;;;4973410;28;20038;-81
2022/09/11 06:46:04;;;;;;;7.55;3.72;;;;;;;;;;4985224;28;20028;-79
2022/09/11 06:48:50;;;;;;;5.70;3.15;;;;;;;;;;4978108;28;20029;-90
2022/09/11 06:51:35;;;;;;;5.90;3.53;;;;;;;;;;4979883;28;20042;-75
2022/09/11 06:54:21;;;;;;;6.25;3.70;;;;;;;;;;4984299;28;20029;-74
2022/09/11 06:57:06;;;;;;;8.02;5.10;;;;;;;;;;4983898;28;20084;-73
2022/09/11 06:59:52;;;;;;;4.60;3.10;;;;;;;;;;4960688;28;20023;-74
2022/09/11 07:02:38;;;;;;;4.70;3.75;;;;;;;;;;4988417;28;20026;-73
2022/09/11 07:05:24;;;;;;;5.75;3.65;;;;;;;;;;4974737;28;20143;-71
2022/09/11 07:08:10;;;;;;;6.25;3.20;;;;;;;;;;4983282;28;20457;-79
2022/09/11 07:11:01;;;;;;;5.43;3.55;;;;;;;;;;4985810;28;20498;-78
2022/09/11 07:13:47;;;;;;;8.07;3.60;;;;;;;;;;4980436;28;20697;-80
2022/09/11 07:16:33;;;;;;;6.32;4.28;;;;;;;;;;4984980;28;20057;-80
2022/09/11 07:19:19;;;;;;;6.78;3.90;;;;;;;;;;4984317;28;20026;-80
2022/09/11 07:22:04;;;;;;;6.78;3.58;;;;;;;;;;4985825;28;20339;-80
2022/09/11 07:24:53;;;;;;;7.05;3.53;;;;;;;;;;4978205;28;20032;-73
2022/09/11 07:27:39;;;;;;;5.65;3.78;;;;;;;;;;4982918;28;20469;-72
2022/09/11 07:30:25;;;;;;;5.88;3.13;;;;;;;;;;4972689;28;20046;-74
2022/09/11 07:33:11;;;;;;;5.28;3.53;;;;;;;;;;4984393;28;20025;-72
2022/09/11 07:35:57;;;;;;;5.15;3.75;;;;;;;;;;4983833;28;20029;-71
2022/09/11 07:38:43;;;;;;;6.38;3.65;;;;;;;;;;4988346;28;20018;-73
2022/09/11 07:41:30;;;;;;;5.95;4.03;;;;;;;;;;4980436;28;20030;-72
2022/09/11 07:44:17;;;;;;;6.97;4.25;;;;;;;;;;4978220;28;20144;-79
2022/09/11 07:47:03;;;;;;;6.93;3.90;;;;;;;;;;4986809;28;20383;-87
2022/09/11 07:49:49;;;;;;;4.70;3.67;;;;;;;;;;4973080;28;20034;-88
2022/09/11 07:52:35;;;;;;;4.60;3.42;;;;;;;;;;4992186;28;20026;-88
2022/09/11 07:55:21;;;;;;;5.45;3.80;;;;;;;;;;4995244;28;20030;-88
2022/09/11 07:58:07;;;;;;;8.82;3.88;;;;;;;;;;4979387;28;20438;-91
2022/09/11 08:00:56;;;;;;;5.97;3.65;;;;;;;;;;4991801;28;20030;-74
2022/09/11 08:03:42;;;;;;;6.07;4.13;;;;;;;;;;4988864;28;20485;-79
2022/09/11 08:06:29;;;;;;;5.03;3.70;;;;;;;;;;4981341;28;20027;-70
2022/09/11 08:09:15;;;;;;;7.35;4.80;;;;;;;;;;4989800;28;20026;-72
2022/09/11 08:12:00;;;;;;;8.05;4.85;;;;;;;;;;4985811;28;20137;-71
2022/09/11 08:14:46;;;;;;;5.93;4.85;;;;;;;;;;4972356;28;20080;-72
2022/09/11 08:17:32;;;;;;;8.65;4.82;;;;;;;;;;4977465;28;20030;-72
2022/09/11 08:20:17;;;;;;;6.63;4.60;;;;;;;;;;4981810;28;20026;-90
2022/09/11 08:23:04;;;;;;;5.30;3.65;;;;;;;;;;4988976;28;20101;-81
2022/09/11 08:25:50;;;;;;;5.90;4.25;;;;;;;;;;4971262;28;20105;-82
2022/09/11 08:28:36;;;;;;;5.97;4.07;;;;;;;;;;4989240;28;20030;-78
2022/09/11 08:31:26;;;;;;;6.05;3.85;;;;;;;;;;4989391;28;20034;-78
2022/09/11 08:34:11;;;;;;;;;;;;;;;;;;4978954;28;20033;-82
2022/09/11 08:36:57;;;;;;;6.70;4.65;;;;;;;;;;4977093;28;20444;-80
2022/09/11 08:39:43;;;;;;;6.80;4.43;;;;;;;;;;4991531;28;20053;-84
2022/09/11 08:42:28;;;;;;;9.20;4.25;;;;;;;;;;4972877;28;20116;-82
2022/09/11 08:45:18;;;;;;;6.63;3.33;;;;;;;;;;4977488;28;20058;-79
2022/09/11 08:48:05;;;;;;;9.50;4.63;;;;;;;;;;4992936;28;20054;-76
2022/09/11 08:50:51;;;;;;;8.55;4.50;;;;;;;;;;4991372;28;20030;-77
2022/09/11 08:53:37;;;;;;;8.27;4.20;;;;;;;;;;4979399;28;20502;-78
2022/09/11 08:56:27;;;;;;;5.93;4.80;;;;;;;;;;4977444;28;20108;-79
2022/09/11 08:59:17;;;;;;;9.13;4.93;;;;;;;;;;4988950;28;20038;-71
2022/09/11 09:02:17;;;;;;;6.55;4.38;;;;;;;;;;4984155;28;20041;-71
2022/09/11 09:05:21;;;;;;;9.60;5.05;;;;;;;;;;4990708;28;20022;-70
2022/09/11 09:08:09;;;;;;;8.77;4.47;;;;;;;;;;4982273;28;20026;-71
2022/09/11 09:11:01;;;;;;;9.00;4.25;;;;;;;;;;4986048;28;20474;-70
2022/09/11 09:14:00;;;;;;;7.45;3.58;;;;;;;;;;4985384;28;20022;-71
2022/09/11 09:17:07;;;;;;;4.72;3.28;;;;;;;;;;4979349;28;20124;-75
2022/09/11 09:20:16;;;;;;;3.28;2.75;;;;;;;;;;4986244;28;20113;-68
2022/09/11 09:23:18;;;;;;;4.85;3.00;;;;;;;;;;4988350;28;20022;-67
2022/09/11 09:26:03;;;;;;;9.02;2.95;;;;;;;;;;4977168;28;20045;-69
2022/09/11 09:28:51;;;;;;;4.82;2.80;;;;;;;;;;4987950;28;20117;-69
2022/09/11 09:31:37;;;;;;;4.95;2.75;;;;;;;;;;4989937;28;20037;-70
2022/09/11 09:34:26;;;;;;;4.07;2.60;;;;;;;;;;4985337;28;20026;-73
2022/09/11 09:37:22;;;;;;;4.25;3.00;;;;;;;;;;4987963;28;20460;-63
2022/09/11 09:40:09;;;;;;;3.72;2.60;;;;;;;;;;4989838;28;20038;-62
2022/09/11 09:43:07;;;;;;;5.47;3.17;;;;;;;;;;4986445;28;20024;-64
2022/09/11 09:46:09;;;;;;;4.95;3.22;;;;;;;;;;4983828;28;20030;-63
2022/09/11 09:48:55;;;;;;;5.38;3.08;;;;;;;;;;4978427;28;20033;-63
2022/09/11 09:51:41;;;;;;;4.78;3.45;;;;;;;;;;4978874;28;20045;-73
2022/09/11 09:54:28;;;;;;;5.00;3.55;;;;;;;;;;4983286;28;20033;-74
2022/09/11 09:57:14;;;;;;;5.25;3.45;;;;;;;;;;4986299;28;20393;-74
2022/09/11 10:00:04;;;;;;;6.40;3.53;;;;;;;;;;4988468;28;20448;-74
2022/09/11 10:02:53;;;;;;;6.10;4.13;;;;;;;;;;4984520;28;20073;-74
2022/09/11 10:05:43;;;;;;;6.28;3.83;;;;;;;;;;4989733;28;20033;-73
2022/09/11 10:08:36;;;;;;;10.80;5.53;;;;;;;;;;4984136;28;20031;-74
2022/09/11 10:11:27;;;;;;;9.32;4.65;;;;;;;;;;4978020;28;20034;-70
2022/09/11 10:14:19;;;;;;;7.60;4.30;;;;;;;;;;4982231;28;20026;-70
2022/09/11 10:17:05;;;;;;;9.38;4.15;;;;;;;;;;4988057;28;20200;-71
2022/09/11 10:19:53;;;;;;;6.15;4.03;;;;;;;;;;4984799;28;20047;-70
2022/09/11 10:22:39;;;;;;;5.85;3.90;;;;;;;;;;4974981;28;20026;-70
2022/09/11 10:25:26;;;;;;;6.47;3.85;;;;;;;;;;4990166;28;20081;-71
2022/09/11 10:28:13;;;;;;;6.60;4.18;;;;;;;;;;4986957;28;20042;-73
2022/09/11 10:31:01;;;;;;;6.55;3.58;;;;;;;;;;4974112;28;20050;-72
2022/09/11 10:33:50;;;;;;;6.72;3.60;;;;;;;;;;4984379;28;20050;-64
2022/09/11 10:36:35;;;;;;;4.95;3.72;;;;;;;;;;4984257;28;20034;-64
2022/09/11 10:39:23;;;;;;;8.25;4.55;;;;;;;;;;4989688;28;20030;-65
2022/09/11 10:42:15;;;;;;;7.38;5.00;;;;;;;;;;4981063;28;20069;-65
2022/09/11 10:45:09;;;;;;;7.38;4.55;;;;;;;;;;4986338;28;20466;-66
2022/09/11 10:47:54;;;;;;;8.90;4.47;;;;;;;;;;4976207;28;20022;-70
2022/09/11 10:50:41;;;;;;;6.85;4.20;;;;;;;;;;4982035;28;20310;-70
2022/09/11 10:53:28;;;;;;;5.72;4.07;;;;;;;;;;4984500;28;20030;-72
2022/09/11 10:56:14;;;;;;;7.35;4.13;;;;;;;;;;4978527;28;20479;-71
2022/09/11 10:59:03;;;;;;;5.55;4.13;;;;;;;;;;4975604;28;20030;-72
2022/09/11 11:01:50;;;;;;;;;;;;;;;;;;4982929;28;20761;-73
2022/09/11 11:04:35;;;;;;;5.80;3.55;;;;;;;;;;4982392;28;20019;-71
2022/09/11 11:07:31;;;;;;;5.40;4.55;;;;;;;;;;4979082;28;20026;-72
2022/09/11 11:10:26;;;;;;;6.15;4.88;;;;;;;;;;4980858;28;20464;-70
2022/09/11 11:13:28;;;;;;;6.88;3.67;;;;;;;;;;4983808;28;20034;-71
2022/09/11 11:16:14;;;;;;;8.07;4.18;;;;;;;;;;4978894;28;20042;-71
2022/09/11 11:19:06;;;;;;;5.07;4.15;;;;;;;;;;4981153;28;20057;-70
2022/09/11 11:22:27;;;;;;;6.95;4.22;;;;;;;;;;4975046;28;20022;-71
2022/09/11 11:25:21;;;;;;;6.97;4.32;;;;;;;;;;4895831;29;20033;-66
2022/09/11 11:28:07;;;;;;;5.85;4.25;;;;;;;;;;4985350;28;20054;-64
2022/09/11 11:30:54;;;;;;;6.78;4.20;;;;;;;;;;4989065;28;20089;-65
2022/09/11 11:33:45;;;;;;;5.75;3.95;;;;;;;;;;4986800;28;20026;-64
2022/09/11 11:36:31;;;;;;;5.50;4.20;;;;;;;;;;4986607;28;20030;-65
2022/09/11 11:39:24;;;;;;;4.50;3.88;;;;;;;;;;4976252;28;20489;-64
2022/09/11 11:42:28;;;;;;;9.40;4.57;;;;;;;;;;4988819;28;20081;-69
2022/09/11 11:45:22;;;;;;;5.88;4.05;;;;;;;;;;4979125;28;20027;-67
2022/09/11 11:48:12;;;;;;;6.50;4.07;;;;;;;;;;4981276;28;20439;-66
2022/09/11 11:51:01;;;;;;;5.80;3.80;;;;;;;;;;4987254;28;20438;-68
2022/09/11 11:53:54;;;;;;;6.50;4.80;;;;;;;;;;4984919;28;20031;-66
2022/09/11 11:56:47;;;;;;;5.80;3.78;;;;;;;;;;4987339;28;20038;-66
2022/09/11 11:59:39;;;;;;;5.25;3.45;;;;;;;;;;4992332;28;20031;-67
2022/09/11 12:02:32;;;;;;;5.70;3.92;;;;;;;;;;4994191;28;20450;-69
2022/09/11 12:05:22;;;;;;;5.65;3.88;;;;;;;;;;4987429;28;20396;-71
2022/09/11 12:08:12;;;;;;;4.85;3.83;;;;;;;;;;4992257;28;20105;-70
2022/09/11 12:11:00;;;;;;;6.18;3.70;;;;;;;;;;4991343;28;20030;-71
2022/09/11 12:13:46;;;;;;;5.63;3.83;;;;;;;;;;4982548;28;20023;-71
2022/09/11 12:16:33;;;;;;;5.95;4.28;;;;;;;;;;4982831;28;20474;-71
2022/09/11 12:19:20;;;;;;;6.00;3.80;;;;;;;;;;4991761;28;20227;-68
2022/09/11 12:22:10;;;;;;;3.75;3.15;;;;;;;;;;4992231;28;20030;-69
2022/09/11 12:24:57;;;;;;;5.03;3.53;;;;;;;;;;4988783;28;20056;-68
2022/09/11 12:27:43;;;;;;;6.60;3.90;;;;;;;;;;4976332;28;20037;-68
2022/09/11 12:30:29;;;;;;;4.57;3.17;;;;;;;;;;4986512;28;20070;-68
2022/09/11 12:33:34;;;;;;;5.22;3.45;;;;;;;;;;4979762;28;20102;-68
2022/09/11 12:36:32;;;;;;;4.55;3.50;;;;;;;;;;4985932;28;20096;-68
2022/09/11 12:39:29;;;;;;;4.78;3.13;;;;;;;;;;4988107;28;20030;-67
2022/09/11 12:42:27;;;;;;;4.97;3.67;;;;;;;;;;4976350;28;20046;-64
2022/09/11 12:45:33;;;;;;;4.85;3.00;;;;;;;;;;4986611;28;20066;-64
2022/09/11 12:48:36;;;;;;;4.00;3.10;;;;;;;;;;4987021;28;20026;-64
2022/09/11 12:51:31;;;;;;;8.25;3.92;;;;;;;;;;4980489;28;20114;-63
2022/09/11 12:54:21;;;;;;;5.60;3.70;;;;;;;;;;4976334;28;20018;-65
2022/09/11 12:57:18;;;;;;;5.00;3.78;;;;;;;;;;4979161;28;20038;-70
2022/09/11 13:00:10;;;;;;;7.25;4.18;;;;;;;;;;4982793;28;20019;-70
2022/09/11 13:02:56;;;;;;;6.50;4.40;;;;;;;;;;4982607;28;20054;-69
2022/09/11 13:05:44;;;;;;;6.13;4.30;;;;;;;;;;4983082;28;20038;-70
2022/09/11 13:08:33;;;;;;;7.28;4.40;;;;;;;;;;4989563;28;20022;-70
2022/09/11 13:11:37;;;;;;;7.05;4.30;;;;;;;;;;4979060;28;20402;-70
2022/09/11 13:14:28;;;;;;;5.45;3.63;;;;;;;;;;4979885;28;20540;-69
2022/09/11 13:17:17;;;;;;;4.70;3.60;;;;;;;;;;4993255;28;20552;-64
2022/09/11 13:20:08;;;;;;;5.00;4.03;;;;;;;;;;4980979;28;20062;-63
2022/09/11 13:23:09;;;;;;;4.68;3.83;;;;;;;;;;4982275;28;20022;-63
2022/09/11 13:25:55;;;;;;;8.15;4.47;;;;;;;;;;4973977;28;20117;-65
2022/09/11 13:28:45;;;;;;;5.28;3.97;;;;;;;;;;4986408;28;20030;-64
2022/09/11 13:31:33;;;;;;;7.53;4.03;;;;;;;;;;4984807;28;20173;-65
2022/09/11 13:34:20;;;;;;;5.70;4.70;;;;;;;;;;4988680;28;20026;-69
2022/09/11 13:37:30;;;;;;;4.82;3.85;;;;;;;;;;4982177;28;20035;-67
2022/09/11 13:40:15;;;;;;;;;;;;;;;;;;4990270;28;20419;-66
2022/09/11 13:43:01;;;;;;;5.53;3.95;;;;;;;;;;4986319;28;19910;-68
2022/09/11 13:45:46;;;;;;;5.10;3.80;;;;;;;;;;4989230;28;20029;-66
2022/09/11 13:48:32;;;;;;;7.43;3.75;;;;;;;;;;4983525;28;20058;-66
2022/09/11 13:51:20;;;;;;;4.40;3.58;;;;;;;;;;4979256;28;20049;-70
2022/09/11 13:54:07;;;;;;;6.30;4.25;;;;;;;;;;4989492;28;20031;-70
2022/09/11 13:56:53;;;;;;;5.63;3.80;;;;;;;;;;4984258;28;20038;-70
2022/09/11 13:59:43;;;;;;;5.35;4.13;;;;;;;;;;4986127;28;20045;-72
2022/09/11 14:02:43;;;;;;;5.32;4.22;;;;;;;;;;4984140;28;20363;-70
2022/09/11 14:05:31;;;;;;;4.80;3.65;;;;;;;;;;4991810;28;20062;-70
2022/09/11 14:08:19;;;;;;;5.80;3.97;;;;;;;;;;4989138;28;20086;-71
2022/09/11 14:11:07;;;;;;;6.78;4.18;;;;;;;;;;4979594;28;20040;-65
2022/09/11 14:14:13;;;;;;;6.22;3.65;;;;;;;;;;4978140;28;20076;-69
2022/09/11 14:17:00;;;;;;;5.82;3.88;;;;;;;;;;4987280;28;20015;-68
2022/09/11 14:19:46;;;;;;;6.03;3.95;;;;;;;;;;4977509;28;20033;-68
2022/09/11 14:22:31;;;;;;;6.97;3.55;;;;;;;;;;4973322;28;20041;-68
2022/09/11 14:25:19;;;;;;;3.70;3.20;;;;;;;;;;4987347;28;20037;-68
2022/09/11 14:28:04;;;;;;;5.57;3.95;;;;;;;;;;4979532;28;20045;-70
2022/09/11 14:31:03;;;;;;;5.82;3.47;;;;;;;;;;4984105;28;20035;-65
2022/09/11 14:34:01;;;;;;;6.90;3.72;;;;;;;;;;4970212;28;20093;-66
2022/09/11 14:36:49;;;;;;;7.50;4.05;;;;;;;;;;4982665;28;20526;-64
2022/09/11 14:40:07;;;;;;;6.30;3.67;;;;;;;;;;4988340;28;20038;-65
2022/09/11 14:42:52;;;;;;;5.65;4.30;;;;;;;;;;4969457;28;20121;-64
2022/09/11 14:45:38;;;;;;;4.60;3.80;;;;;;;;;;4984361;28;20026;-65
2022/09/11 14:48:24;;;;;;;5.57;3.47;;;;;;;;;;4980891;28;20034;-75
2022/09/11 14:51:11;;;;;;;4.72;3.50;;;;;;;;;;4985086;28;20490;-69
2022/09/11 14:53:56;;;;;;;6.85;3.72;;;;;;;;;;4988013;28;20026;-68
2022/09/11 14:56:43;;;;;;;6.32;3.78;;;;;;;;;;4978265;28;20029;-69
2022/09/11 14:59:29;;;;;;;5.00;3.58;;;;;;;;;;4984926;28;20023;-70
2022/09/11 15:02:19;;;;;;;4.65;3.50;;;;;;;;;;4987060;28;20560;-69
2022/09/11 15:05:06;;;;;;;6.82;3.55;;;;;;;;;;4985611;28;20041;-72
2022/09/11 15:07:52;;;;;;;7.85;3.28;;;;;;;;;;4983878;28;20018;-69
2022/09/11 15:10:37;;;;;;;4.72;3.53;;;;;;;;;;4985038;28;20560;-69
2022/09/11 15:13:23;;;;;;;4.63;3.53;;;;;;;;;;4985537;28;20027;-70
2022/09/11 15:16:09;;;;;;;5.38;3.58;;;;;;;;;;4986301;28;20061;-69
2022/09/11 15:18:54;;;;;;;7.05;4.20;;;;;;;;;;4979686;28;20088;-68
2022/09/11 15:21:40;;;;;;;4.07;3.38;;;;;;;;;;4987444;28;20042;-70
2022/09/11 15:24:26;;;;;;;4.93;3.67;;;;;;;;;;4988941;28;20156;-73
2022/09/11 15:27:12;;;;;;;3.80;3.40;;;;;;;;;;4979974;28;20078;-69
2022/09/11 15:29:58;;;;;;;5.43;4.03;;;;;;;;;;4975183;28;20031;-69
2022/09/11 15:32:43;;;;;;;3.83;3.42;;;;;;;;;;4985431;28;20031;-69
2022/09/11 15:35:29;;;;;;;7.85;4.28;;;;;;;;;;4981684;28;20029;-72
2022/09/11 15:38:15;;;;;;;6.47;3.38;;;;;;;;;;4982594;28;20113;-69
2022/09/11 15:41:01;;;;;;;5.00;3.95;;;;;;;;;;4983210;28;20026;-68
2022/09/11 15:43:47;;;;;;;8.30;4.18;;;;;;;;;;4988720;28;20133;-74
2022/09/11 15:46:34;;;;;;;5.90;3.28;;;;;;;;;;4976003;28;20497;-67
2022/09/11 15:49:20;;;;;;;5.03;3.88;;;;;;;;;;4986253;28;20034;-67
2022/09/11 15:52:06;;;;;;;5.15;3.75;;;;;;;;;;4980994;28;20030;-66
2022/09/11 15:54:52;;;;;;;5.00;3.42;;;;;;;;;;4976853;28;20030;-67
2022/09/11 15:57:38;;;;;;;6.43;3.40;;;;;;;;;;4981990;28;20069;-67
2022/09/11 16:00:23;;;;;;;3.95;3.55;;;;;;;;;;4976907;28;20026;-70
2022/09/11 16:03:10;;;;;;;4.43;3.58;;;;;;;;;;4979863;28;20033;-68
2022/09/11 16:05:56;;;;;;;4.88;3.22;;;;;;;;;;4977504;28;20053;-70
2022/09/11 16:08:42;;;;;;;3.97;3.20;;;;;;;;;;4975284;28;20070;-70
2022/09/11 16:11:30;;;;;;;4.50;3.63;;;;;;;;;;4984667;28;20469;-69
2022/09/11 16:14:26;;;;;;;5.72;4.30;;;;;;;;;;4973337;28;20042;-67
2022/09/11 16:17:15;;;;;;;3.65;3.25;;;;;;;;;;4979855;28;20490;-68
2022/09/11 16:20:01;;;;;;;5.90;4.18;;;;;;;;;;4978982;28;20398;-71
2022/09/11 16:22:46;;;;;;;4.00;3.13;;;;;;;;;;4981716;28;20030;-68
2022/09/11 16:25:36;;;;;;;6.05;3.63;;;;;;;;;;4984270;28;20375;-68
2022/09/11 16:28:22;;;;;;;3.72;3.42;;;;;;;;;;4978829;28;20046;-68
2022/09/11 16:31:07;;;;;;;6.80;5.00;;;;;;;;;;4983671;28;20136;-67
2022/09/11 16:33:55;;;;;;;3.88;3.38;;;;;;;;;;4991046;28;20060;-68
2022/09/11 16:36:41;;;;;;;3.42;3.13;;;;;;;;;;4979146;28;20072;-70
2022/09/11 16:39:27;;;;;;;4.28;3.53;;;;;;;;;;4986238;28;20019;-73
2022/09/11 16:42:13;;;;;;;4.47;3.63;;;;;;;;;;4981606;28;20034;-67
2022/09/11 16:44:58;;;;;;;5.90;3.22;;;;;;;;;;4980409;28;20084;-70
2022/09/11 16:47:44;;;;;;;5.10;3.53;;;;;;;;;;4988363;28;20034;-69
2022/09/11 16:50:30;;;;;;;4.25;3.47;;;;;;;;;;4985747;28;20402;-70